sensor_id;sensor_type;location;lat;lon;timestamp;P1;durP1;ratioP1;P2;durP2;ratioP2
11039;SDS011;5573;49.592;8.662;2024-03-22T00:02:20;50.10;;;47.43;;
11039;SDS011;5573;49.592;8.662;2024-03-22T00:04:47;48.67;;;46.13;;
11039;SDS011;5573;49.592;8.662;2024-03-22T00:07:13;49.03;;;46.43;;
11039;SDS011;5573;49.592;8.662;2024-03-22T00:09:40;45.87;;;43.50;;
11039;SDS011;5573;49.592;8.662;2024-03-22T00:12:06;47.47;;;44.93;;
11039;SDS011;5573;49.592;8.662;2024-03-22T00:14:33;48.07;;;45.60;;
11039;SDS011;5573;49.592;8.662;2024-03-22T00:17:01;44.13;;;41.80;;
11039;SDS011;5573;49.592;8.662;2024-03-22T00:19:28;42.30;;;40.03;;
11039;SDS011;5573;49.592;8.662;2024-03-22T00:21:54;45.03;;;42.60;;
11039;SDS011;5573;49.592;8.662;2024-03-22T00:24:21;43.77;;;41.47;;
11039;SDS011;5573;49.592;8.662;2024-03-22T00:26:47;43.30;;;40.90;;
11039;SDS011;5573;49.592;8.662;2024-03-22T00:29:14;42.47;;;40.17;;
11039;SDS011;5573;49.592;8.662;2024-03-22T00:31:40;44.67;;;42.27;;
11039;SDS011;5573;49.592;8.662;2024-03-22T00:34:08;47.03;;;44.50;;
11039;SDS011;5573;49.592;8.662;2024-03-22T00:36:34;47.27;;;44.77;;
11039;SDS011;5573;49.592;8.662;2024-03-22T00:39:00;43.40;;;41.17;;
11039;SDS011;5573;49.592;8.662;2024-03-22T00:41:26;44.37;;;42.07;;
11039;SDS011;5573;49.592;8.662;2024-03-22T00:43:53;45.83;;;43.37;;
11039;SDS011;5573;49.592;8.662;2024-03-22T00:46:19;44.40;;;42.07;;
11039;SDS011;5573;49.592;8.662;2024-03-22T00:48:46;45.83;;;43.40;;
11039;SDS011;5573;49.592;8.662;2024-03-22T00:51:13;44.53;;;42.17;;
11039;SDS011;5573;49.592;8.662;2024-03-22T00:53:40;47.63;;;44.80;;
11039;SDS011;5573;49.592;8.662;2024-03-22T00:56:06;42.77;;;40.47;;
11039;SDS011;5573;49.592;8.662;2024-03-22T00:58:33;41.97;;;39.67;;
11039;SDS011;5573;49.592;8.662;2024-03-22T01:00:59;42.37;;;40.17;;
11039;SDS011;5573;49.592;8.662;2024-03-22T01:03:26;46.13;;;43.67;;
11039;SDS011;5573;49.592;8.662;2024-03-22T01:05:52;46.43;;;43.97;;
11039;SDS011;5573;49.592;8.662;2024-03-22T01:08:20;42.40;;;40.20;;
11039;SDS011;5573;49.592;8.662;2024-03-22T01:10:46;45.47;;;43.07;;
11039;SDS011;5573;49.592;8.662;2024-03-22T01:13:13;41.57;;;39.33;;
11039;SDS011;5573;49.592;8.662;2024-03-22T01:15:39;43.53;;;41.27;;
11039;SDS011;5573;49.592;8.662;2024-03-22T01:18:06;44.57;;;42.10;;
11039;SDS011;5573;49.592;8.662;2024-03-22T01:20:32;41.77;;;39.50;;
11039;SDS011;5573;49.592;8.662;2024-03-22T01:22:59;46.53;;;43.90;;
11039;SDS011;5573;49.592;8.662;2024-03-22T01:25:26;43.47;;;41.23;;
11039;SDS011;5573;49.592;8.662;2024-03-22T01:27:54;47.70;;;45.20;;
11039;SDS011;5573;49.592;8.662;2024-03-22T01:30:20;40.13;;;38.03;;
11039;SDS011;5573;49.592;8.662;2024-03-22T01:32:47;44.87;;;42.47;;
11039;SDS011;5573;49.592;8.662;2024-03-22T01:35:13;41.13;;;38.97;;
11039;SDS011;5573;49.592;8.662;2024-03-22T01:37:41;42.53;;;40.30;;
11039;SDS011;5573;49.592;8.662;2024-03-22T01:40:07;44.87;;;42.37;;
11039;SDS011;5573;49.592;8.662;2024-03-22T01:42:36;42.63;;;40.43;;
11039;SDS011;5573;49.592;8.662;2024-03-22T01:45:02;46.50;;;43.80;;
11039;SDS011;5573;49.592;8.662;2024-03-22T01:47:29;45.07;;;42.60;;
11039;SDS011;5573;49.592;8.662;2024-03-22T01:49:56;45.97;;;43.43;;
11039;SDS011;5573;49.592;8.662;2024-03-22T01:52:24;47.93;;;45.33;;
11039;SDS011;5573;49.592;8.662;2024-03-22T01:54:50;48.93;;;46.23;;
11039;SDS011;5573;49.592;8.662;2024-03-22T01:57:16;46.47;;;44.00;;
11039;SDS011;5573;49.592;8.662;2024-03-22T01:59:44;45.33;;;43.00;;
11039;SDS011;5573;49.592;8.662;2024-03-22T02:02:14;47.93;;;45.30;;
11039;SDS011;5573;49.592;8.662;2024-03-22T02:04:40;47.73;;;45.17;;
11039;SDS011;5573;49.592;8.662;2024-03-22T02:07:07;47.63;;;45.03;;
11039;SDS011;5573;49.592;8.662;2024-03-22T02:09:33;47.37;;;44.83;;
11039;SDS011;5573;49.592;8.662;2024-03-22T02:12:01;44.87;;;42.53;;
11039;SDS011;5573;49.592;8.662;2024-03-22T02:14:27;49.80;;;47.17;;
11039;SDS011;5573;49.592;8.662;2024-03-22T02:16:55;48.13;;;45.53;;
11039;SDS011;5573;49.592;8.662;2024-03-22T02:19:21;48.53;;;45.93;;
11039;SDS011;5573;49.592;8.662;2024-03-22T02:21:48;46.70;;;44.03;;
11039;SDS011;5573;49.592;8.662;2024-03-22T02:24:15;47.37;;;44.77;;
11039;SDS011;5573;49.592;8.662;2024-03-22T02:26:42;49.87;;;47.17;;
11039;SDS011;5573;49.592;8.662;2024-03-22T02:29:09;45.93;;;43.50;;
11039;SDS011;5573;49.592;8.662;2024-03-22T02:31:35;48.10;;;45.53;;
11039;SDS011;5573;49.592;8.662;2024-03-22T02:34:01;47.03;;;44.53;;
11039;SDS011;5573;49.592;8.662;2024-03-22T02:36:27;52.77;;;49.87;;
11039;SDS011;5573;49.592;8.662;2024-03-22T02:38:54;44.20;;;41.90;;
11039;SDS011;5573;49.592;8.662;2024-03-22T02:41:21;47.67;;;45.17;;
11039;SDS011;5573;49.592;8.662;2024-03-22T02:43:48;43.17;;;40.90;;
11039;SDS011;5573;49.592;8.662;2024-03-22T02:46:14;45.63;;;43.23;;
11039;SDS011;5573;49.592;8.662;2024-03-22T02:48:41;46.97;;;44.43;;
11039;SDS011;5573;49.592;8.662;2024-03-22T02:51:07;46.47;;;43.97;;
11039;SDS011;5573;49.592;8.662;2024-03-22T02:53:33;43.73;;;41.23;;
11039;SDS011;5573;49.592;8.662;2024-03-22T02:55:59;45.30;;;42.87;;
11039;SDS011;5573;49.592;8.662;2024-03-22T02:58:27;45.17;;;42.87;;
11039;SDS011;5573;49.592;8.662;2024-03-22T03:00:53;46.33;;;43.87;;
11039;SDS011;5573;49.592;8.662;2024-03-22T03:03:20;46.90;;;44.40;;
11039;SDS011;5573;49.592;8.662;2024-03-22T03:05:46;45.33;;;42.90;;
11039;SDS011;5573;49.592;8.662;2024-03-22T03:08:13;45.30;;;42.90;;
11039;SDS011;5573;49.592;8.662;2024-03-22T03:10:39;46.13;;;43.63;;
11039;SDS011;5573;49.592;8.662;2024-03-22T03:13:06;45.17;;;42.80;;
11039;SDS011;5573;49.592;8.662;2024-03-22T03:15:33;47.13;;;44.57;;
11039;SDS011;5573;49.592;8.662;2024-03-22T03:18:00;44.30;;;41.90;;
11039;SDS011;5573;49.592;8.662;2024-03-22T03:20:26;41.43;;;39.20;;
11039;SDS011;5573;49.592;8.662;2024-03-22T03:22:52;46.13;;;43.63;;
11039;SDS011;5573;49.592;8.662;2024-03-22T03:25:18;47.40;;;44.80;;
11039;SDS011;5573;49.592;8.662;2024-03-22T03:27:45;39.93;;;37.83;;
11039;SDS011;5573;49.592;8.662;2024-03-22T03:30:11;43.23;;;40.93;;
11039;SDS011;5573;49.592;8.662;2024-03-22T03:32:39;43.57;;;41.17;;
11039;SDS011;5573;49.592;8.662;2024-03-22T03:35:05;42.47;;;40.17;;
11039;SDS011;5573;49.592;8.662;2024-03-22T03:37:32;39.47;;;37.37;;
11039;SDS011;5573;49.592;8.662;2024-03-22T03:39:58;38.10;;;36.10;;
11039;SDS011;5573;49.592;8.662;2024-03-22T03:42:25;40.37;;;38.17;;
11039;SDS011;5573;49.592;8.662;2024-03-22T03:44:51;42.23;;;39.97;;
11039;SDS011;5573;49.592;8.662;2024-03-22T03:47:17;39.73;;;37.53;;
11039;SDS011;5573;49.592;8.662;2024-03-22T03:49:46;38.17;;;36.20;;
11039;SDS011;5573;49.592;8.662;2024-03-22T03:52:13;35.80;;;33.67;;
11039;SDS011;5573;49.592;8.662;2024-03-22T03:54:39;39.27;;;37.17;;
11039;SDS011;5573;49.592;8.662;2024-03-22T03:57:06;40.47;;;38.33;;
11039;SDS011;5573;49.592;8.662;2024-03-22T03:59:32;38.07;;;36.07;;
11039;SDS011;5573;49.592;8.662;2024-03-22T04:01:59;43.73;;;41.27;;
11039;SDS011;5573;49.592;8.662;2024-03-22T04:04:25;39.17;;;37.00;;
11039;SDS011;5573;49.592;8.662;2024-03-22T04:06:53;41.00;;;38.73;;
11039;SDS011;5573;49.592;8.662;2024-03-22T04:09:19;41.37;;;38.97;;
11039;SDS011;5573;49.592;8.662;2024-03-22T04:11:46;43.97;;;41.63;;
11039;SDS011;5573;49.592;8.662;2024-03-22T04:14:13;41.33;;;39.20;;
11039;SDS011;5573;49.592;8.662;2024-03-22T04:16:39;44.23;;;41.77;;
11039;SDS011;5573;49.592;8.662;2024-03-22T04:19:05;43.57;;;41.03;;
11039;SDS011;5573;49.592;8.662;2024-03-22T04:21:32;42.87;;;40.57;;
11039;SDS011;5573;49.592;8.662;2024-03-22T04:24:00;42.77;;;40.40;;
11039;SDS011;5573;49.592;8.662;2024-03-22T04:26:27;45.37;;;42.97;;
11039;SDS011;5573;49.592;8.662;2024-03-22T04:28:53;41.37;;;39.20;;
11039;SDS011;5573;49.592;8.662;2024-03-22T04:31:20;40.47;;;38.33;;
11039;SDS011;5573;49.592;8.662;2024-03-22T04:33:45;46.73;;;44.20;;
11039;SDS011;5573;49.592;8.662;2024-03-22T04:36:12;42.90;;;40.67;;
11039;SDS011;5573;49.592;8.662;2024-03-22T04:38:38;47.67;;;44.90;;
11039;SDS011;5573;49.592;8.662;2024-03-22T04:41:06;41.43;;;39.23;;
11039;SDS011;5573;49.592;8.662;2024-03-22T04:43:33;45.23;;;42.67;;
11039;SDS011;5573;49.592;8.662;2024-03-22T04:46:00;48.37;;;45.73;;
11039;SDS011;5573;49.592;8.662;2024-03-22T04:48:26;44.50;;;42.13;;
11039;SDS011;5573;49.592;8.662;2024-03-22T04:50:53;46.97;;;44.50;;
11039;SDS011;5573;49.592;8.662;2024-03-22T04:53:19;45.80;;;43.27;;
11039;SDS011;5573;49.592;8.662;2024-03-22T04:55:47;46.97;;;44.50;;
11039;SDS011;5573;49.592;8.662;2024-03-22T04:58:15;50.47;;;47.80;;
11039;SDS011;5573;49.592;8.662;2024-03-22T05:00:43;46.77;;;44.27;;
11039;SDS011;5573;49.592;8.662;2024-03-22T05:03:09;46.20;;;43.73;;
11039;SDS011;5573;49.592;8.662;2024-03-22T05:05:37;48.83;;;46.23;;
11039;SDS011;5573;49.592;8.662;2024-03-22T05:08:04;48.10;;;45.50;;
11039;SDS011;5573;49.592;8.662;2024-03-22T05:10:31;53.50;;;50.67;;
11039;SDS011;5573;49.592;8.662;2024-03-22T05:12:57;49.90;;;47.23;;
11039;SDS011;5573;49.592;8.662;2024-03-22T05:15:26;54.90;;;51.70;;
11039;SDS011;5573;49.592;8.662;2024-03-22T05:17:52;48.30;;;45.67;;
11039;SDS011;5573;49.592;8.662;2024-03-22T05:20:19;56.30;;;53.27;;
11039;SDS011;5573;49.592;8.662;2024-03-22T05:22:47;55.57;;;52.67;;
11039;SDS011;5573;49.592;8.662;2024-03-22T05:25:14;57.07;;;53.97;;
11039;SDS011;5573;49.592;8.662;2024-03-22T05:27:40;56.00;;;52.97;;
11039;SDS011;5573;49.592;8.662;2024-03-22T05:30:08;56.83;;;53.80;;
11039;SDS011;5573;49.592;8.662;2024-03-22T05:32:36;56.93;;;53.93;;
11039;SDS011;5573;49.592;8.662;2024-03-22T05:35:04;55.17;;;52.10;;
11039;SDS011;5573;49.592;8.662;2024-03-22T05:37:30;56.83;;;53.80;;
11039;SDS011;5573;49.592;8.662;2024-03-22T05:39:57;59.07;;;55.63;;
11039;SDS011;5573;49.592;8.662;2024-03-22T05:42:23;53.93;;;51.07;;
11039;SDS011;5573;49.592;8.662;2024-03-22T05:44:50;56.03;;;53.13;;
11039;SDS011;5573;49.592;8.662;2024-03-22T05:47:17;51.53;;;48.83;;
11039;SDS011;5573;49.592;8.662;2024-03-22T05:49:47;50.92;;;47.97;;
11039;SDS011;5573;49.592;8.662;2024-03-22T05:52:14;55.07;;;52.10;;
11039;SDS011;5573;49.592;8.662;2024-03-22T05:54:40;56.13;;;53.20;;
11039;SDS011;5573;49.592;8.662;2024-03-22T05:57:07;50.58;;;47.90;;
11039;SDS011;5573;49.592;8.662;2024-03-22T05:59:33;47.73;;;45.17;;
11039;SDS011;5573;49.592;8.662;2024-03-22T06:02:00;54.30;;;51.40;;
11039;SDS011;5573;49.592;8.662;2024-03-22T06:04:26;56.85;;;53.72;;
11039;SDS011;5573;49.592;8.662;2024-03-22T06:06:54;54.10;;;51.10;;
11039;SDS011;5573;49.592;8.662;2024-03-22T06:09:20;49.65;;;47.00;;
11039;SDS011;5573;49.592;8.662;2024-03-22T06:11:59;47.53;;;44.90;;
11039;SDS011;5573;49.592;8.662;2024-03-22T06:14:25;45.75;;;43.25;;
11039;SDS011;5573;49.592;8.662;2024-03-22T06:16:52;48.70;;;46.00;;
11039;SDS011;5573;49.592;8.662;2024-03-22T06:19:18;48.58;;;45.92;;
11039;SDS011;5573;49.592;8.662;2024-03-22T06:21:45;42.90;;;40.50;;
11039;SDS011;5573;49.592;8.662;2024-03-22T06:24:12;42.65;;;40.38;;
11039;SDS011;5573;49.592;8.662;2024-03-22T06:26:39;40.05;;;37.83;;
11039;SDS011;5573;49.592;8.662;2024-03-22T06:29:05;39.80;;;37.55;;
11039;SDS011;5573;49.592;8.662;2024-03-22T06:31:32;37.63;;;35.35;;
11039;SDS011;5573;49.592;8.662;2024-03-22T06:33:57;37.58;;;35.38;;
11039;SDS011;5573;49.592;8.662;2024-03-22T06:36:27;39.85;;;37.65;;
11039;SDS011;5573;49.592;8.662;2024-03-22T06:38:53;39.72;;;37.58;;
11039;SDS011;5573;49.592;8.662;2024-03-22T06:41:22;36.85;;;34.85;;
11039;SDS011;5573;49.592;8.662;2024-03-22T06:43:48;40.53;;;38.30;;
11039;SDS011;5573;49.592;8.662;2024-03-22T06:46:14;38.50;;;36.33;;
11039;SDS011;5573;49.592;8.662;2024-03-22T06:48:40;42.50;;;40.17;;
11039;SDS011;5573;49.592;8.662;2024-03-22T06:51:07;40.97;;;38.72;;
11039;SDS011;5573;49.592;8.662;2024-03-22T06:53:33;42.47;;;40.15;;
11039;SDS011;5573;49.592;8.662;2024-03-22T06:56:00;43.40;;;40.90;;
11039;SDS011;5573;49.592;8.662;2024-03-22T06:58:27;43.70;;;41.30;;
11039;SDS011;5573;49.592;8.662;2024-03-22T07:00:54;44.60;;;42.10;;
11039;SDS011;5573;49.592;8.662;2024-03-22T07:03:20;47.22;;;44.72;;
11039;SDS011;5573;49.592;8.662;2024-03-22T07:05:46;52.70;;;49.83;;
11039;SDS011;5573;49.592;8.662;2024-03-22T07:08:13;60.08;;;56.85;;
11039;SDS011;5573;49.592;8.662;2024-03-22T07:10:39;67.78;;;64.22;;
11039;SDS011;5573;49.592;8.662;2024-03-22T07:13:05;75.35;;;71.40;;
11039;SDS011;5573;49.592;8.662;2024-03-22T07:15:34;87.60;;;83.05;;
11039;SDS011;5573;49.592;8.662;2024-03-22T07:18:00;93.57;;;88.70;;
11039;SDS011;5573;49.592;8.662;2024-03-22T07:20:27;94.75;;;89.78;;
11039;SDS011;5573;49.592;8.662;2024-03-22T07:22:53;88.65;;;83.95;;
11039;SDS011;5573;49.592;8.662;2024-03-22T07:25:20;80.47;;;76.15;;
11039;SDS011;5573;49.592;8.662;2024-03-22T07:27:46;77.25;;;73.05;;
11039;SDS011;5573;49.592;8.662;2024-03-22T07:30:14;74.43;;;70.35;;
11039;SDS011;5573;49.592;8.662;2024-03-22T07:32:41;77.32;;;73.22;;
11039;SDS011;5573;49.592;8.662;2024-03-22T07:35:08;75.28;;;71.22;;
11039;SDS011;5573;49.592;8.662;2024-03-22T07:37:34;67.13;;;63.50;;
11039;SDS011;5573;49.592;8.662;2024-03-22T07:40:01;71.47;;;67.50;;
11039;SDS011;5573;49.592;8.662;2024-03-22T07:42:27;69.15;;;65.43;;
11039;SDS011;5573;49.592;8.662;2024-03-22T07:44:54;69.85;;;66.00;;
11039;SDS011;5573;49.592;8.662;2024-03-22T07:47:20;75.10;;;71.13;;
11039;SDS011;5573;49.592;8.662;2024-03-22T07:49:48;71.07;;;67.18;;
11039;SDS011;5573;49.592;8.662;2024-03-22T07:52:14;68.47;;;64.63;;
11039;SDS011;5573;49.592;8.662;2024-03-22T07:54:41;75.22;;;71.03;;
11039;SDS011;5573;49.592;8.662;2024-03-22T07:57:06;63.92;;;60.55;;
11039;SDS011;5573;49.592;8.662;2024-03-22T07:59:33;75.07;;;70.93;;
11039;SDS011;5573;49.592;8.662;2024-03-22T08:01:59;75.72;;;71.72;;
11039;SDS011;5573;49.592;8.662;2024-03-22T08:04:26;66.25;;;62.70;;
11039;SDS011;5573;49.592;8.662;2024-03-22T08:06:54;72.95;;;69.07;;
11039;SDS011;5573;49.592;8.662;2024-03-22T08:09:21;72.75;;;68.88;;
11039;SDS011;5573;49.592;8.662;2024-03-22T08:11:47;59.60;;;56.35;;
11039;SDS011;5573;49.592;8.662;2024-03-22T08:14:14;67.80;;;64.10;;
11039;SDS011;5573;49.592;8.662;2024-03-22T08:16:41;68.13;;;64.40;;
11039;SDS011;5573;49.592;8.662;2024-03-22T08:19:08;78.22;;;74.05;;
11039;SDS011;5573;49.592;8.662;2024-03-22T08:21:34;75.00;;;70.97;;
11039;SDS011;5573;49.592;8.662;2024-03-22T08:24:03;76.97;;;72.80;;
11039;SDS011;5573;49.592;8.662;2024-03-22T08:26:30;71.90;;;68.07;;
11039;SDS011;5573;49.592;8.662;2024-03-22T08:28:57;72.75;;;68.75;;
11039;SDS011;5573;49.592;8.662;2024-03-22T08:31:22;77.13;;;73.00;;
11039;SDS011;5573;49.592;8.662;2024-03-22T08:33:51;77.88;;;73.68;;
11039;SDS011;5573;49.592;8.662;2024-03-22T08:36:17;74.00;;;70.10;;
11039;SDS011;5573;49.592;8.662;2024-03-22T08:38:43;75.68;;;71.65;;
11039;SDS011;5573;49.592;8.662;2024-03-22T08:41:11;82.25;;;77.88;;
11039;SDS011;5573;49.592;8.662;2024-03-22T08:43:37;75.68;;;71.53;;
11039;SDS011;5573;49.592;8.662;2024-03-22T08:46:03;77.53;;;73.45;;
11039;SDS011;5573;49.592;8.662;2024-03-22T08:48:30;74.15;;;70.15;;
11039;SDS011;5573;49.592;8.662;2024-03-22T08:50:56;76.25;;;72.25;;
11039;SDS011;5573;49.592;8.662;2024-03-22T08:53:23;75.10;;;70.93;;
11039;SDS011;5573;49.592;8.662;2024-03-22T08:55:50;85.05;;;80.40;;
11039;SDS011;5573;49.592;8.662;2024-03-22T08:58:18;82.47;;;78.15;;
11039;SDS011;5573;49.592;8.662;2024-03-22T09:00:44;74.32;;;70.32;;
11039;SDS011;5573;49.592;8.662;2024-03-22T09:03:10;80.00;;;75.72;;
11039;SDS011;5573;49.592;8.662;2024-03-22T09:05:37;89.13;;;84.43;;
11039;SDS011;5573;49.592;8.662;2024-03-22T09:08:04;83.55;;;79.13;;
11039;SDS011;5573;49.592;8.662;2024-03-22T09:10:30;86.32;;;81.60;;
11039;SDS011;5573;49.592;8.662;2024-03-22T09:12:57;87.10;;;82.32;;
11039;SDS011;5573;49.592;8.662;2024-03-22T09:15:24;84.43;;;80.03;;
11039;SDS011;5573;49.592;8.662;2024-03-22T09:17:51;87.43;;;82.80;;
11039;SDS011;5573;49.592;8.662;2024-03-22T09:20:18;94.25;;;89.32;;
11039;SDS011;5573;49.592;8.662;2024-03-22T09:22:44;90.32;;;85.65;;
11039;SDS011;5573;49.592;8.662;2024-03-22T09:25:10;92.22;;;87.30;;
11039;SDS011;5573;49.592;8.662;2024-03-22T09:27:37;100.03;;;94.75;;
11039;SDS011;5573;49.592;8.662;2024-03-22T09:30:03;94.78;;;89.82;;
11039;SDS011;5573;49.592;8.662;2024-03-22T09:32:32;92.15;;;87.35;;
11039;SDS011;5573;49.592;8.662;2024-03-22T09:34:58;88.45;;;83.72;;
11039;SDS011;5573;49.592;8.662;2024-03-22T09:37:25;96.68;;;91.53;;
11039;SDS011;5573;49.592;8.662;2024-03-22T09:39:51;88.95;;;84.22;;
11039;SDS011;5573;49.592;8.662;2024-03-22T09:42:19;94.35;;;89.32;;
11039;SDS011;5573;49.592;8.662;2024-03-22T09:44:48;93.38;;;88.47;;
11039;SDS011;5573;49.592;8.662;2024-03-22T09:47:16;87.40;;;82.78;;
11039;SDS011;5573;49.592;8.662;2024-03-22T09:49:44;94.00;;;88.95;;
11039;SDS011;5573;49.592;8.662;2024-03-22T09:52:12;92.28;;;87.45;;
11039;SDS011;5573;49.592;8.662;2024-03-22T09:54:39;99.70;;;94.53;;
11039;SDS011;5573;49.592;8.662;2024-03-22T09:57:09;101.07;;;95.75;;
11039;SDS011;5573;49.592;8.662;2024-03-22T09:59:39;97.45;;;92.28;;
11039;SDS011;5573;49.592;8.662;2024-03-22T10:02:06;95.65;;;90.38;;
11039;SDS011;5573;49.592;8.662;2024-03-22T10:04:36;102.65;;;97.28;;
11039;SDS011;5573;49.592;8.662;2024-03-22T10:07:04;105.90;;;100.32;;
11039;SDS011;5573;49.592;8.662;2024-03-22T10:09:30;107.85;;;102.13;;
11039;SDS011;5573;49.592;8.662;2024-03-22T10:11:57;102.15;;;96.60;;
11039;SDS011;5573;49.592;8.662;2024-03-22T10:14:23;113.22;;;107.25;;
11039;SDS011;5573;49.592;8.662;2024-03-22T10:16:52;97.03;;;91.85;;
11039;SDS011;5573;49.592;8.662;2024-03-22T10:19:19;100.35;;;95.05;;
11039;SDS011;5573;49.592;8.662;2024-03-22T10:21:46;101.03;;;95.72;;
11039;SDS011;5573;49.592;8.662;2024-03-22T10:24:14;104.65;;;99.03;;
11039;SDS011;5573;49.592;8.662;2024-03-22T10:26:41;114.10;;;107.97;;
11039;SDS011;5573;49.592;8.662;2024-03-22T10:29:07;109.32;;;103.45;;
11039;SDS011;5573;49.592;8.662;2024-03-22T10:31:35;101.07;;;95.70;;
11039;SDS011;5573;49.592;8.662;2024-03-22T10:34:02;106.57;;;100.93;;
11039;SDS011;5573;49.592;8.662;2024-03-22T10:36:29;101.07;;;95.80;;
11039;SDS011;5573;49.592;8.662;2024-03-22T10:38:56;101.57;;;96.22;;
11039;SDS011;5573;49.592;8.662;2024-03-22T10:41:26;103.53;;;98.00;;
11039;SDS011;5573;49.592;8.662;2024-03-22T10:43:52;110.72;;;104.68;;
11039;SDS011;5573;49.592;8.662;2024-03-22T10:46:19;103.50;;;98.03;;
11039;SDS011;5573;49.592;8.662;2024-03-22T10:48:45;107.90;;;102.28;;
11039;SDS011;5573;49.592;8.662;2024-03-22T10:51:13;100.50;;;95.15;;
11039;SDS011;5573;49.592;8.662;2024-03-22T10:53:41;101.97;;;96.60;;
11039;SDS011;5573;49.592;8.662;2024-03-22T10:56:08;103.93;;;98.32;;
11039;SDS011;5573;49.592;8.662;2024-03-22T10:58:40;100.20;;;94.90;;
11039;SDS011;5573;49.592;8.662;2024-03-22T11:01:10;103.25;;;97.78;;
11039;SDS011;5573;49.592;8.662;2024-03-22T11:03:47;100.05;;;94.72;;
11039;SDS011;5573;49.592;8.662;2024-03-22T11:06:17;104.57;;;99.03;;
11039;SDS011;5573;49.592;8.662;2024-03-22T11:08:43;108.47;;;102.75;;
11039;SDS011;5573;49.592;8.662;2024-03-22T11:11:11;94.30;;;89.10;;
11039;SDS011;5573;49.592;8.662;2024-03-22T11:13:38;104.10;;;98.53;;
11039;SDS011;5573;49.592;8.662;2024-03-22T11:16:08;101.28;;;95.97;;
11039;SDS011;5573;49.592;8.662;2024-03-22T11:18:35;101.40;;;96.03;;
11039;SDS011;5573;49.592;8.662;2024-03-22T11:21:02;105.05;;;99.50;;
11039;SDS011;5573;49.592;8.662;2024-03-22T11:23:29;110.60;;;104.38;;
11039;SDS011;5573;49.592;8.662;2024-03-22T11:25:56;109.57;;;103.88;;
11039;SDS011;5573;49.592;8.662;2024-03-22T11:28:22;107.25;;;101.65;;
11039;SDS011;5573;49.592;8.662;2024-03-22T11:30:50;111.05;;;105.03;;
11039;SDS011;5573;49.592;8.662;2024-03-22T11:33:16;106.57;;;100.93;;
11039;SDS011;5573;49.592;8.662;2024-03-22T11:35:43;107.80;;;102.07;;
11039;SDS011;5573;49.592;8.662;2024-03-22T11:38:10;107.85;;;102.15;;
11039;SDS011;5573;49.592;8.662;2024-03-22T11:40:37;110.00;;;104.10;;
11039;SDS011;5573;49.592;8.662;2024-03-22T11:43:03;109.75;;;103.90;;
11039;SDS011;5573;49.592;8.662;2024-03-22T11:45:30;96.47;;;91.38;;
11039;SDS011;5573;49.592;8.662;2024-03-22T11:48:02;96.00;;;90.88;;
11039;SDS011;5573;49.592;8.662;2024-03-22T11:50:29;90.30;;;85.50;;
11039;SDS011;5573;49.592;8.662;2024-03-22T11:52:55;86.25;;;81.72;;
11039;SDS011;5573;49.592;8.662;2024-03-22T11:55:26;90.97;;;86.15;;
11039;SDS011;5573;49.592;8.662;2024-03-22T11:57:53;90.40;;;85.60;;
11039;SDS011;5573;49.592;8.662;2024-03-22T12:00:20;91.05;;;86.28;;
11039;SDS011;5573;49.592;8.662;2024-03-22T12:02:48;88.28;;;83.47;;
11039;SDS011;5573;49.592;8.662;2024-03-22T12:05:16;91.85;;;87.00;;
11039;SDS011;5573;49.592;8.662;2024-03-22T12:07:43;77.32;;;73.28;;
11039;SDS011;5573;49.592;8.662;2024-03-22T12:10:11;78.68;;;74.50;;
11039;SDS011;5573;49.592;8.662;2024-03-22T12:12:39;74.43;;;70.43;;
11039;SDS011;5573;49.592;8.662;2024-03-22T12:15:06;72.53;;;68.65;;
11039;SDS011;5573;49.592;8.662;2024-03-22T12:17:32;80.20;;;75.82;;
11039;SDS011;5573;49.592;8.662;2024-03-22T12:20:01;75.20;;;71.20;;
11039;SDS011;5573;49.592;8.662;2024-03-22T12:22:30;80.57;;;76.32;;
11039;SDS011;5573;49.592;8.662;2024-03-22T12:24:57;68.63;;;64.90;;
11039;SDS011;5573;49.592;8.662;2024-03-22T12:27:24;74.45;;;70.43;;
11039;SDS011;5573;49.592;8.662;2024-03-22T12:29:51;73.90;;;69.90;;
11039;SDS011;5573;49.592;8.662;2024-03-22T12:32:17;75.93;;;71.90;;
11039;SDS011;5573;49.592;8.662;2024-03-22T12:34:44;80.15;;;75.90;;
11039;SDS011;5573;49.592;8.662;2024-03-22T12:37:10;72.97;;;69.00;;
11039;SDS011;5573;49.592;8.662;2024-03-22T12:39:38;77.35;;;73.28;;
11039;SDS011;5573;49.592;8.662;2024-03-22T12:42:05;77.55;;;73.30;;
11039;SDS011;5573;49.592;8.662;2024-03-22T12:44:32;78.75;;;74.50;;
11039;SDS011;5573;49.592;8.662;2024-03-22T12:46:58;75.63;;;71.63;;
11039;SDS011;5573;49.592;8.662;2024-03-22T12:49:25;77.28;;;73.10;;
11039;SDS011;5573;49.592;8.662;2024-03-22T12:51:51;77.88;;;73.68;;
11039;SDS011;5573;49.592;8.662;2024-03-22T12:54:17;82.85;;;78.40;;
11039;SDS011;5573;49.592;8.662;2024-03-22T12:56:45;75.53;;;71.50;;
11039;SDS011;5573;49.592;8.662;2024-03-22T12:59:13;77.75;;;73.57;;
11039;SDS011;5573;49.592;8.662;2024-03-22T13:01:39;78.07;;;73.97;;
11039;SDS011;5573;49.592;8.662;2024-03-22T13:04:05;74.22;;;70.25;;
11039;SDS011;5573;49.592;8.662;2024-03-22T13:06:32;70.80;;;67.00;;
11039;SDS011;5573;49.592;8.662;2024-03-22T13:08:59;81.07;;;76.82;;
11039;SDS011;5573;49.592;8.662;2024-03-22T13:11:25;79.35;;;75.10;;
11039;SDS011;5573;49.592;8.662;2024-03-22T13:13:53;77.60;;;73.40;;
11039;SDS011;5573;49.592;8.662;2024-03-22T13:16:19;88.32;;;83.72;;
11039;SDS011;5573;49.592;8.662;2024-03-22T13:18:46;80.88;;;76.57;;
11039;SDS011;5573;49.592;8.662;2024-03-22T13:21:12;84.25;;;79.85;;
11039;SDS011;5573;49.592;8.662;2024-03-22T13:23:38;76.20;;;72.18;;
11039;SDS011;5573;49.592;8.662;2024-03-22T13:26:04;77.10;;;72.93;;
11039;SDS011;5573;49.592;8.662;2024-03-22T13:28:32;76.10;;;72.03;;
11039;SDS011;5573;49.592;8.662;2024-03-22T13:31:03;75.53;;;71.47;;
11039;SDS011;5573;49.592;8.662;2024-03-22T13:33:31;81.80;;;77.45;;
11039;SDS011;5573;49.592;8.662;2024-03-22T13:35:58;78.95;;;74.65;;
11039;SDS011;5573;49.592;8.662;2024-03-22T13:38:25;82.25;;;77.88;;
11039;SDS011;5573;49.592;8.662;2024-03-22T13:40:52;78.32;;;74.15;;
11039;SDS011;5573;49.592;8.662;2024-03-22T13:43:19;83.07;;;78.65;;
11039;SDS011;5573;49.592;8.662;2024-03-22T13:45:46;87.97;;;83.40;;
11039;SDS011;5573;49.592;8.662;2024-03-22T13:48:17;84.40;;;79.93;;
11039;SDS011;5573;49.592;8.662;2024-03-22T13:50:43;83.45;;;79.07;;
11039;SDS011;5573;49.592;8.662;2024-03-22T13:53:09;81.95;;;77.57;;
11039;SDS011;5573;49.592;8.662;2024-03-22T13:55:35;81.07;;;76.82;;
11039;SDS011;5573;49.592;8.662;2024-03-22T13:58:02;84.40;;;79.95;;
11039;SDS011;5573;49.592;8.662;2024-03-22T14:00:28;83.95;;;79.53;;
11039;SDS011;5573;49.592;8.662;2024-03-22T14:02:55;81.90;;;77.55;;
11039;SDS011;5573;49.592;8.662;2024-03-22T14:05:23;76.80;;;72.68;;
11039;SDS011;5573;49.592;8.662;2024-03-22T14:07:50;81.30;;;77.03;;
11039;SDS011;5573;49.592;8.662;2024-03-22T14:10:16;85.25;;;80.78;;
11039;SDS011;5573;49.592;8.662;2024-03-22T14:12:45;79.10;;;74.97;;
11039;SDS011;5573;49.592;8.662;2024-03-22T14:15:12;84.47;;;80.00;;
11039;SDS011;5573;49.592;8.662;2024-03-22T14:17:38;80.80;;;76.55;;
11039;SDS011;5573;49.592;8.662;2024-03-22T14:20:05;86.22;;;81.75;;
11039;SDS011;5573;49.592;8.662;2024-03-22T14:22:38;83.15;;;78.80;;
11039;SDS011;5573;49.592;8.662;2024-03-22T14:25:06;77.65;;;73.55;;
11039;SDS011;5573;49.592;8.662;2024-03-22T14:27:32;80.78;;;76.45;;
11039;SDS011;5573;49.592;8.662;2024-03-22T14:30:00;82.55;;;78.15;;
11039;SDS011;5573;49.592;8.662;2024-03-22T14:32:26;83.43;;;78.90;;